Time;durP1;ratioP1;P1;durP2;ratioP2;P2;SDS_P1;SDS_P2;PMS_P1;PMS_P2;Temp;Humidity;BMP_temperature;BMP_pressure;BME280_temperature;BME280_humidity;BME280_pressure;Samples;Min_cycle;Max_cycle;Signal;HPM_P1;HPM_P2
2024/01/30 00:00:31;;;;;;;18.73;9.15;;;;;;;2.65;83.66;100062.28;5054183;28;20029;-79
2024/01/30 00:02:56;;;;;;;16.23;9.38;;;;;;;2.70;83.72;100064.41;5051533;28;20105;-78
2024/01/30 00:05:22;;;;;;;12.80;9.20;;;;;;;2.67;84.11;100070.00;5049650;28;20047;-78
2024/01/30 00:07:47;;;;;;;10.90;8.70;;;;;;;2.67;83.93;100065.56;5049375;28;20038;-79
2024/01/30 00:10:14;;;;;;;14.93;9.13;;;;;;;2.69;84.09;100054.84;5068894;28;20032;-78
2024/01/30 00:12:39;;;;;;;13.27;9.35;;;;;;;2.66;83.65;100058.66;5056178;28;20033;-79
2024/01/30 00:15:08;;;;;;;14.02;9.63;;;;;;;2.80;83.33;100054.47;5049056;28;20063;-79
2024/01/30 00:17:33;;;;;;;12.70;9.85;;;;;;;2.91;83.10;100060.22;5031636;28;20032;-79
2024/01/30 00:19:59;;;;;;;14.50;9.60;;;;;;;2.91;82.81;100062.88;5044598;28;20028;-79
2024/01/30 00:22:24;;;;;;;13.60;9.02;;;;;;;2.86;82.80;100054.63;5046781;28;20121;-78
2024/01/30 00:24:49;;;;;;;13.63;8.82;;;;;;;2.72;83.68;100059.78;5045079;28;20033;-78
2024/01/30 00:27:16;;;;;;;12.35;9.27;;;;;;;2.72;83.58;100049.25;5047045;28;20048;-78
2024/01/30 00:29:41;;;;;;;14.65;8.75;;;;;;;2.70;83.87;100056.50;5045056;28;20154;-79
2024/01/30 00:32:06;;;;;;;14.93;9.00;;;;;;;2.65;83.62;100046.47;5026604;28;20043;-79
2024/01/30 00:34:32;;;;;;;15.07;9.13;;;;;;;2.81;83.58;100051.69;5045320;28;20044;-79
2024/01/30 00:36:57;;;;;;;15.90;9.23;;;;;;;2.81;83.24;100043.78;5045059;28;20087;-79
2024/01/30 00:39:23;;;;;;;15.20;9.02;;;;;;;2.77;83.48;100055.69;5053057;28;20029;-79
2024/01/30 00:41:48;;;;;;;16.40;8.55;;;;;;;2.66;83.89;100047.28;5053985;28;20086;-78
2024/01/30 00:44:14;;;;;;;12.75;8.15;;;;;;;2.70;83.52;100040.69;5051074;28;20035;-78
2024/01/30 00:46:39;;;;;;;13.70;9.45;;;;;;;2.71;83.44;100043.16;5060817;28;20086;-78
2024/01/30 00:49:04;;;;;;;12.20;9.15;;;;;;;2.86;82.90;100043.28;5058045;28;20400;-80
2024/01/30 00:51:29;;;;;;;11.18;9.00;;;;;;;2.80;83.29;100038.66;5048202;28;20541;-79
2024/01/30 00:53:55;;;;;;;16.30;9.95;;;;;;;2.95;82.54;100047.50;5048774;28;20047;-79
2024/01/30 00:56:20;;;;;;;18.15;9.93;;;;;;;2.57;83.49;100043.84;5050958;28;20090;-79
2024/01/30 00:58:46;;;;;;;16.98;8.82;;;;;;;2.66;83.64;100045.50;5049598;28;20033;-79
2024/01/30 01:01:12;;;;;;;12.23;8.85;;;;;;;2.56;83.23;100034.28;5053251;28;20397;-79
2024/01/30 01:03:37;;;;;;;14.70;9.43;;;;;;;2.64;83.48;100049.28;5051835;28;20029;-79
2024/01/30 01:06:03;;;;;;;14.48;9.30;;;;;;;2.58;83.71;100047.31;5055736;28;20032;-79
2024/01/30 01:08:28;;;;;;;13.93;8.90;;;;;;;2.61;83.91;100042.53;5046887;28;20029;-80
2024/01/30 01:10:53;;;;;;;14.38;9.50;;;;;;;2.53;84.39;100039.91;5046998;28;20033;-78
2024/01/30 01:13:19;;;;;;;15.25;9.88;;;;;;;2.53;84.13;100053.09;5051214;28;20139;-79
2024/01/30 01:15:44;;;;;;;14.73;10.18;;;;;;;2.52;83.93;100045.34;5051604;28;20060;-78
2024/01/30 01:18:09;;;;;;;13.40;9.25;;;;;;;2.49;84.22;100050.94;5049956;28;20498;-78
2024/01/30 01:20:35;;;;;;;16.92;9.50;;;;;;;2.53;83.84;100054.91;5052417;28;20461;-78
2024/01/30 01:23:00;;;;;;;14.30;9.10;;;;;;;2.60;83.69;100055.88;5051877;28;20028;-79
2024/01/30 01:25:26;;;;;;;16.55;9.88;;;;;;;2.51;83.95;100048.97;5054029;28;20513;-79
2024/01/30 01:27:52;;;;;;;15.48;9.07;;;;;;;2.54;83.95;100051.25;5050963;28;20060;-78
2024/01/30 01:30:21;;;;;;;16.15;10.20;;;;;;;2.44;84.22;100056.72;5052147;28;20104;-78
2024/01/30 01:32:56;;;;;;;16.33;10.15;;;;;;;2.42;84.19;100063.97;5054221;28;20107;-78
2024/01/30 01:35:25;;;;;;;13.75;9.10;;;;;;;2.50;84.04;100055.22;5052111;28;20029;-78
2024/01/30 01:37:59;;;;;;;18.08;10.02;;;;;;;2.45;83.67;100050.44;5037164;28;20021;-79
2024/01/30 01:40:25;;;;;;;14.80;9.50;;;;;;;2.41;83.80;100051.78;5055962;28;20086;-78
2024/01/30 01:42:54;;;;;;;15.43;9.15;;;;;;;2.39;83.85;100051.13;5050003;28;20033;-82
2024/01/30 01:45:20;;;;;;;16.13;10.10;;;;;;;2.31;84.22;100061.69;5053595;28;20112;-79
2024/01/30 01:47:47;;;;;;;15.52;9.85;;;;;;;2.39;83.85;100066.94;5051692;28;20078;-79
2024/01/30 01:50:18;;;;;;;14.88;9.57;;;;;;;2.46;83.45;100069.72;5054870;28;20021;-78
2024/01/30 01:52:44;;;;;;;16.42;9.25;;;;;;;2.42;83.84;100061.34;5052497;28;20457;-78
2024/01/30 01:55:11;;;;;;;13.43;9.57;;;;;;;2.52;83.79;100067.25;5050142;28;20064;-77
2024/01/30 01:57:36;;;;;;;13.48;9.52;;;;;;;2.48;83.94;100068.56;5045318;28;20499;-77
2024/01/30 02:00:04;;;;;;;12.23;8.55;;;;;;;2.49;83.15;100050.94;5049385;28;20035;-78
2024/01/30 02:02:30;;;;;;;13.48;8.27;;;;;;;2.49;83.29;100049.13;5051709;28;20111;-77
2024/01/30 02:04:58;;;;;;;14.10;9.05;;;;;;;2.38;83.73;100061.84;5050731;28;20051;-78
2024/01/30 02:07:24;;;;;;;13.02;8.88;;;;;;;2.39;83.54;100060.81;5047018;28;20492;-77
2024/01/30 02:09:49;;;;;;;12.75;8.52;;;;;;;2.42;84.09;100057.88;5047469;28;20481;-78
2024/01/30 02:12:14;;;;;;;14.32;8.73;;;;;;;2.46;83.72;100053.91;5051379;28;20036;-78
2024/01/30 02:14:47;;;;;;;17.35;10.10;;;;;;;2.43;83.77;100062.97;5051065;28;20043;-78
2024/01/30 02:17:13;;;;;;;18.52;10.07;;;;;;;2.46;83.72;100056.53;5049010;28;20036;-77
2024/01/30 02:19:39;;;;;;;13.35;8.20;;;;;;;2.45;83.48;100044.34;5033388;28;20029;-78
2024/01/30 02:22:05;;;;;;;12.52;9.15;;;;;;;2.50;83.61;100053.41;5049679;28;20488;-77
2024/01/30 02:24:30;;;;;;;15.20;8.95;;;;;;;2.51;82.86;100044.50;5048607;28;20138;-77
2024/01/30 02:26:55;;;;;;;15.30;9.50;;;;;;;2.48;83.52;100049.28;5049936;28;20971;-78
2024/01/30 02:29:21;;;;;;;14.77;9.60;;;;;;;2.46;83.58;100049.47;5046638;28;20493;-77
2024/01/30 02:31:46;;;;;;;16.75;9.05;;;;;;;2.40;83.85;100044.03;5042527;28;20079;-78
2024/01/30 02:34:12;;;;;;;14.38;8.48;;;;;;;2.40;83.92;100044.88;5048034;28;20051;-78
2024/01/30 02:36:37;;;;;;;16.25;9.13;;;;;;;2.51;83.33;100041.88;5040836;28;20047;-77
2024/01/30 02:39:03;;;;;;;13.68;8.85;;;;;;;2.43;83.38;100038.44;5049587;28;20625;-79
2024/01/30 02:41:28;;;;;;;16.58;9.32;;;;;;;2.44;83.67;100034.81;5047219;28;20021;-77
2024/01/30 02:43:54;;;;;;;13.65;9.43;;;;;;;2.42;83.59;100028.91;5047406;28;20040;-77
2024/01/30 02:46:19;;;;;;;16.00;10.25;;;;;;;2.36;83.87;100021.66;5051290;28;20040;-77
2024/01/30 02:48:45;;;;;;;13.15;9.63;;;;;;;2.37;83.37;100028.56;5051161;28;20040;-78
2024/01/30 02:51:10;;;;;;;17.92;9.93;;;;;;;2.29;83.82;100019.66;5013803;28;20506;-79
2024/01/30 02:53:35;;;;;;;11.85;9.02;;;;;;;2.33;84.19;100022.00;5043953;28;20473;-78
2024/01/30 02:56:02;;;;;;;14.82;9.77;;;;;;;2.27;83.75;100016.38;5049245;28;20037;-78
2024/01/30 02:58:27;;;;;;;14.27;8.85;;;;;;;2.35;83.43;100010.31;5035297;28;20033;-79
2024/01/30 03:00:53;;;;;;;13.75;9.75;;;;;;;2.31;83.48;100018.69;5047819;28;20425;-79
2024/01/30 03:03:18;;;;;;;12.65;9.35;;;;;;;2.29;83.41;100013.59;5036169;28;20033;-80
2024/01/30 03:05:43;;;;;;;13.25;8.70;;;;;;;2.30;83.33;100020.50;5049727;28;20055;-79
2024/01/30 03:08:09;;;;;;;14.57;10.38;;;;;;;2.16;83.65;100013.28;5035856;28;20032;-79
2024/01/30 03:10:34;;;;;;;15.43;9.15;;;;;;;2.24;83.40;100010.66;5047487;28;20033;-78
2024/01/30 03:12:59;;;;;;;14.82;11.20;;;;;;;2.20;83.84;100011.97;5048697;28;20029;-80
2024/01/30 03:15:25;;;;;;;16.15;9.32;;;;;;;2.20;83.71;100015.44;5051887;28;20035;-79
2024/01/30 03:17:50;;;;;;;14.02;9.68;;;;;;;2.18;83.61;100017.38;5048164;28;20029;-81
2024/01/30 03:20:16;;;;;;;16.33;9.55;;;;;;;2.12;84.04;100002.25;5046981;28;20454;-78
2024/01/30 03:22:41;;;;;;;15.60;9.20;;;;;;;2.19;83.71;100013.78;5034932;28;20053;-80
2024/01/30 03:25:07;;;;;;;16.33;8.82;;;;;;;2.23;83.68;100004.53;5032887;28;20025;-79
2024/01/30 03:27:32;;;;;;;18.08;11.50;;;;;;;2.27;83.96;100005.84;5032061;28;20055;-80
2024/01/30 03:29:57;;;;;;;14.48;9.75;;;;;;;2.21;83.71;100003.06;5049122;28;20094;-80
2024/01/30 03:32:23;;;;;;;15.85;9.30;;;;;;;2.36;83.21;99995.31;5055196;28;20144;-80
2024/01/30 03:34:48;;;;;;;14.00;9.50;;;;;;;2.37;83.22;99984.59;5051865;28;20036;-80
2024/01/30 03:37:13;;;;;;;14.40;9.27;;;;;;;2.47;83.21;99995.78;5047343;28;20028;-79
2024/01/30 03:39:39;;;;;;;15.85;9.50;;;;;;;2.47;82.97;99985.22;5050574;28;20112;-80
2024/01/30 03:42:04;;;;;;;14.75;8.75;;;;;;;2.42;82.67;99992.00;5048744;28;20378;-80
2024/01/30 03:44:29;;;;;;;14.55;9.07;;;;;;;2.45;83.11;99981.94;5048143;28;20517;-79
2024/01/30 03:46:55;;;;;;;16.88;10.18;;;;;;;2.27;83.59;99973.44;5050955;28;20036;-78
2024/01/30 03:49:20;;;;;;;12.80;9.15;;;;;;;2.31;84.18;99987.09;5051911;28;20036;-77
2024/01/30 03:51:47;;;;;;;15.90;8.93;;;;;;;2.36;84.32;99985.59;5045388;28;20140;-78
2024/01/30 03:54:13;;;;;;;18.55;10.07;;;;;;;2.37;84.39;99971.44;5030892;28;20037;-79
2024/01/30 03:56:38;;;;;;;13.90;9.50;;;;;;;2.40;84.09;99973.75;5051662;28;20025;-79
2024/01/30 03:59:03;;;;;;;17.30;9.52;;;;;;;2.41;83.94;99967.47;5049067;28;20026;-81
2024/01/30 04:01:29;;;;;;;17.05;9.27;;;;;;;2.31;84.28;99966.03;5055634;28;20017;-78
2024/01/30 04:03:54;;;;;;;18.63;9.73;;;;;;;2.44;84.66;99976.84;5058750;28;20036;-79
2024/01/30 04:06:19;;;;;;;14.57;9.35;;;;;;;2.50;84.36;99963.00;5051067;28;20035;-77
2024/01/30 04:08:45;;;;;;;17.30;9.35;;;;;;;2.53;84.16;99966.13;5050194;28;20119;-77
2024/01/30 04:11:10;;;;;;;12.90;8.88;;;;;;;2.54;84.26;99964.28;5049027;28;20071;-77
2024/01/30 04:13:35;;;;;;;15.68;10.07;;;;;;;2.54;84.23;99964.28;5030705;28;20087;-77
2024/01/30 04:16:02;;;;;;;18.77;10.48;;;;;;;2.49;83.67;99962.16;5048097;28;20484;-77
2024/01/30 04:18:28;;;;;;;15.65;9.88;;;;;;;2.48;83.97;99976.34;5044233;28;20033;-77
2024/01/30 04:20:54;;;;;;;15.60;9.77;;;;;;;2.48;83.76;99971.09;5052050;28;20110;-77
2024/01/30 04:23:19;;;;;;;18.42;9.75;;;;;;;2.41;84.38;99964.84;5052973;28;20064;-77
2024/01/30 04:25:44;;;;;;;12.88;9.45;;;;;;;2.44;84.38;99976.84;5052105;28;20043;-79
2024/01/30 04:28:14;;;;;;;15.40;9.45;;;;;;;2.40;84.29;99968.47;5053185;28;20067;-79
2024/01/30 04:30:39;;;;;;;18.50;9.63;;;;;;;2.34;84.26;99974.41;5051350;28;20041;-79
2024/01/30 04:33:05;;;;;;;16.42;9.68;;;;;;;2.35;85.08;99978.69;5057641;28;20499;-77
2024/01/30 04:35:30;;;;;;;13.98;8.77;;;;;;;2.39;84.66;99981.78;5050503;28;20022;-77
2024/01/30 04:37:55;;;;;;;13.10;9.27;;;;;;;2.38;84.07;99969.63;5050996;28;20037;-78
2024/01/30 04:40:21;;;;;;;12.80;9.30;;;;;;;2.32;84.54;99968.47;5047009;28;20033;-77
2024/01/30 04:42:46;;;;;;;14.15;9.27;;;;;;;2.33;84.38;99975.41;5041597;28;20155;-77
2024/01/30 04:45:12;;;;;;;14.70;9.90;;;;;;;2.34;84.34;99973.59;5050336;28;20043;-77
2024/01/30 04:47:38;;;;;;;17.02;10.00;;;;;;;2.35;84.52;99970.78;5057091;28;20052;-77
2024/01/30 04:50:06;;;;;;;18.38;8.52;;;;;;;2.24;84.52;99965.88;5051591;28;20055;-78
2024/01/30 04:52:31;;;;;;;15.40;9.65;;;;;;;2.22;84.75;99981.84;5055189;28;20069;-81
2024/01/30 04:54:57;;;;;;;15.73;9.50;;;;;;;2.23;85.12;99987.91;5052291;28;20068;-78
2024/01/30 04:57:22;;;;;;;14.35;9.60;;;;;;;2.23;84.55;99978.22;5049138;28;20029;-80
2024/01/30 04:59:47;;;;;;;13.18;9.20;;;;;;;2.34;84.67;99977.03;5049897;28;20033;-79
2024/01/30 05:02:13;;;;;;;17.33;10.43;;;;;;;2.31;84.68;99980.03;5047336;28;20040;-79
2024/01/30 05:04:38;;;;;;;14.23;9.80;;;;;;;2.36;84.77;99980.31;5049854;28;20077;-79
2024/01/30 05:07:04;;;;;;;19.58;9.32;;;;;;;2.34;84.45;99979.66;5053186;28;20112;-79
2024/01/30 05:09:29;;;;;;;14.02;8.90;;;;;;;2.29;84.93;99985.44;5052295;28;20055;-78
2024/01/30 05:11:55;;;;;;;16.67;10.25;;;;;;;2.45;84.66;99974.03;5042274;28;20036;-78
2024/01/30 05:14:20;;;;;;;16.08;10.57;;;;;;;2.37;84.92;99978.50;5048089;28;20929;-79
2024/01/30 05:16:46;;;;;;;16.88;9.57;;;;;;;2.51;84.08;99978.63;5045125;28;20024;-79
2024/01/30 05:19:14;;;;;;;17.75;10.18;;;;;;;2.51;84.02;99985.72;5047040;28;20086;-78
2024/01/30 05:21:39;;;;;;;17.75;11.52;;;;;;;2.48;83.46;99984.25;5044153;28;20059;-80
2024/01/30 05:24:05;;;;;;;15.80;10.43;;;;;;;2.62;83.37;99982.75;5048108;28;20029;-79
2024/01/30 05:26:30;;;;;;;17.02;9.93;;;;;;;2.61;83.63;99981.09;5053339;28;20551;-79
2024/01/30 05:28:55;;;;;;;14.85;9.23;;;;;;;2.65;83.17;99979.75;5029078;28;20087;-79
2024/01/30 05:31:21;;;;;;;16.05;11.20;;;;;;;2.59;83.62;99976.00;5049585;28;20025;-78
2024/01/30 05:33:46;;;;;;;14.35;9.95;;;;;;;2.59;82.80;99981.25;5046445;28;20106;-78
2024/01/30 05:36:15;;;;;;;17.63;10.48;;;;;;;2.51;83.59;99967.28;5044643;28;20071;-86
2024/01/30 05:38:41;;;;;;;17.33;9.50;;;;;;;2.66;83.59;99981.41;5046436;28;20021;-81
2024/01/30 05:41:06;;;;;;;16.23;10.70;;;;;;;2.65;82.82;99979.75;5043958;28;20028;-79
2024/01/30 05:43:31;;;;;;;19.73;9.90;;;;;;;2.68;82.53;99982.88;5016053;28;20036;-79
2024/01/30 05:45:56;;;;;;;14.05;10.88;;;;;;;2.67;83.00;99978.59;5021067;28;20021;-79
2024/01/30 05:48:22;;;;;;;16.15;10.32;;;;;;;2.61;83.16;99970.53;5052617;28;20029;-78
2024/01/30 05:50:47;;;;;;;15.75;10.55;;;;;;;2.63;83.39;99979.09;5051137;28;20024;-80
2024/01/30 05:53:13;;;;;;;16.80;10.55;;;;;;;2.59;83.18;99977.78;5036482;28;20032;-78
2024/01/30 05:55:38;;;;;;;18.73;11.25;;;;;;;2.65;82.98;99985.84;5052892;28;20036;-80
2024/01/30 05:58:03;;;;;;;20.63;11.27;;;;;;;2.60;83.23;99985.53;5049914;28;20032;-77
2024/01/30 06:00:29;;;;;;;18.95;11.52;;;;;;;2.59;83.27;99986.53;5053181;28;20101;-78
2024/01/30 06:02:54;;;;;;;19.88;11.25;;;;;;;2.53;83.74;99981.94;5052781;28;20036;-79
2024/01/30 06:05:23;;;;;;;13.65;10.30;;;;;;;2.47;83.38;99966.78;5052265;28;20041;-87
2024/01/30 06:07:48;;;;;;;16.40;11.40;;;;;;;2.43;84.20;99969.94;5033977;28;20029;-83
2024/01/30 06:10:14;;;;;;;18.48;10.90;;;;;;;2.60;83.53;99974.97;5027875;28;20039;-78
2024/01/30 06:12:39;;;;;;;16.95;11.02;;;;;;;2.45;83.44;99968.78;5049951;28;20036;-78
2024/01/30 06:15:06;;;;;;;18.05;10.45;;;;;;;2.47;83.95;99981.78;5050680;28;20056;-78
2024/01/30 06:17:32;;;;;;;15.27;11.43;;;;;;;2.45;84.22;99976.69;5051053;28;20112;-78
2024/01/30 06:19:58;;;;;;;14.77;10.32;;;;;;;2.53;83.85;99979.31;5052204;28;20075;-78
2024/01/30 06:22:23;;;;;;;16.08;9.63;;;;;;;2.42;83.73;99976.19;5057204;28;20132;-78
2024/01/30 06:24:48;;;;;;;14.55;10.18;;;;;;;2.37;84.03;99974.06;5056394;28;20032;-78
2024/01/30 06:27:15;;;;;;;17.10;10.43;;;;;;;2.54;83.84;99965.13;5055499;28;20033;-78
2024/01/30 06:29:42;;;;;;;14.15;9.98;;;;;;;2.42;84.22;99976.19;5056512;28;20021;-78
2024/01/30 06:32:07;;;;;;;15.82;10.20;;;;;;;2.54;84.08;99970.41;5037844;28;20575;-78
2024/01/30 06:34:33;;;;;;;20.95;10.98;;;;;;;2.26;85.02;99969.97;5061142;28;20038;-78
2024/01/30 06:36:58;;;;;;;17.45;11.63;;;;;;;2.50;84.32;99963.81;5064728;28;20052;-78
2024/01/30 06:39:23;;;;;;;26.40;11.57;;;;;;;2.59;83.64;99973.34;5049056;28;20111;-78
2024/01/30 06:41:49;;;;;;;18.40;11.13;;;;;;;2.59;83.83;99970.72;5056775;28;20061;-78
2024/01/30 06:44:14;;;;;;;20.48;11.02;;;;;;;2.63;83.34;99974.66;5056776;28;20052;-78
2024/01/30 06:46:40;;;;;;;15.30;10.63;;;;;;;2.63;83.12;99973.81;5054182;28;20117;-78
2024/01/30 06:49:05;;;;;;;20.10;11.18;;;;;;;2.65;83.02;99972.66;5045826;28;20061;-79
2024/01/30 06:51:31;;;;;;;18.73;11.13;;;;;;;2.60;83.23;99974.19;5051568;28;20546;-79
2024/01/30 06:53:56;;;;;;;16.83;10.98;;;;;;;2.56;83.43;99975.50;5045426;28;20033;-79
2024/01/30 06:56:22;;;;;;;19.00;11.75;;;;;;;2.55;83.23;99977.31;5032433;28;20029;-79
2024/01/30 06:58:48;;;;;;;15.30;10.45;;;;;;;2.48;83.89;99975.53;5053616;28;20033;-79
2024/01/30 07:01:14;;;;;;;20.02;11.80;;;;;;;2.50;83.47;99968.25;5050910;28;20041;-79
2024/01/30 07:03:40;;;;;;;22.02;10.77;;;;;;;2.42;83.95;99973.56;5051695;28;20025;-79
2024/01/30 07:06:05;;;;;;;16.38;10.98;;;;;;;2.52;83.67;99972.38;5043903;28;20023;-79
2024/01/30 07:08:31;;;;;;;16.02;11.10;;;;;;;2.46;83.71;99980.97;5049380;28;20040;-79
2024/01/30 07:10:56;;;;;;;16.77;10.43;;;;;;;2.42;83.77;99978.84;5047897;28;20044;-79
2024/01/30 07:13:22;;;;;;;17.13;10.25;;;;;;;2.36;84.27;99975.03;5046085;28;20033;-78
2024/01/30 07:15:47;;;;;;;19.60;10.63;;;;;;;2.30;84.16;99978.38;5048398;28;20044;-80
2024/01/30 07:18:13;;;;;;;15.48;10.85;;;;;;;2.23;84.90;99977.38;5046370;28;20144;-78
2024/01/30 07:20:45;;;;;;;15.85;11.43;;;;;;;2.25;84.70;99976.22;5050639;28;20032;-78
2024/01/30 07:23:13;;;;;;;15.07;9.63;;;;;;;2.27;84.96;99976.88;5042370;28;20045;-78
2024/01/30 07:25:41;;;;;;;23.08;10.80;;;;;;;2.33;84.40;99978.03;5045606;28;20029;-78
2024/01/30 07:28:10;;;;;;;13.98;10.02;;;;;;;2.27;84.61;99973.44;5046564;28;20167;-78
2024/01/30 07:30:36;;;;;;;16.02;10.20;;;;;;;2.33;84.42;99971.94;5040978;28;20029;-78
2024/01/30 07:33:02;;;;;;;15.27;10.35;;;;;;;2.33;84.31;99970.13;5018551;28;20041;-78
2024/01/30 07:35:27;;;;;;;15.90;10.57;;;;;;;2.38;84.04;99967.00;5052685;28;20037;-78
2024/01/30 07:37:52;;;;;;;16.70;10.68;;;;;;;2.28;84.48;99977.72;5048848;28;20956;-78
2024/01/30 07:40:18;;;;;;;12.50;9.73;;;;;;;2.22;84.37;99958.16;5044566;28;20033;-78
2024/01/30 07:42:43;;;;;;;15.60;11.65;;;;;;;2.30;84.57;99983.63;5046934;28;20048;-78
2024/01/30 07:45:09;;;;;;;13.38;9.32;;;;;;;2.25;84.84;99980.66;5053446;28;20033;-78
2024/01/30 07:47:34;;;;;;;18.67;11.25;;;;;;;2.19;84.99;99981.34;5061634;28;20039;-78
2024/01/30 07:49:59;;;;;;;17.10;10.88;;;;;;;2.17;85.67;99988.59;5052336;28;20040;-78
2024/01/30 07:52:25;;;;;;;18.40;10.57;;;;;;;2.15;86.03;99982.66;5051800;28;20059;-78
2024/01/30 07:54:51;;;;;;;17.25;10.52;;;;;;;2.27;86.01;99979.50;5028901;28;20029;-78
2024/01/30 07:57:17;;;;;;;16.15;9.75;;;;;;;2.32;85.29;99971.09;5053226;28;20025;-78
2024/01/30 07:59:46;;;;;;;20.23;11.13;;;;;;;2.42;84.79;99978.84;5062519;28;20585;-78
2024/01/30 08:02:14;;;;;;;11.30;9.50;;;;;;;2.42;85.12;99987.56;5046983;28;20549;-78
2024/01/30 08:04:40;;;;;;;14.23;10.20;;;;;;;2.47;85.04;99977.31;5053720;28;20489;-78
2024/01/30 08:07:05;;;;;;;15.18;9.85;;;;;;;2.46;84.68;99974.88;5049478;28;20032;-78
2024/01/30 08:09:30;;;;;;;18.25;10.82;;;;;;;2.50;84.96;99977.00;5045651;28;20033;-78
2024/01/30 08:11:56;;;;;;;16.75;9.88;;;;;;;2.55;84.70;99964.16;5056879;28;20052;-78
2024/01/30 08:14:22;;;;;;;19.55;10.82;;;;;;;2.68;84.33;99977.63;5053109;28;20048;-78
2024/01/30 08:16:47;;;;;;;15.63;10.68;;;;;;;2.62;84.92;99980.09;5061496;28;20028;-78
2024/01/30 08:19:12;;;;;;;18.55;10.80;;;;;;;2.52;85.82;99972.38;5051036;28;20028;-78
2024/01/30 08:21:38;;;;;;;16.98;10.60;;;;;;;2.82;84.40;99986.59;5053864;28;20135;-78
2024/01/30 08:24:04;;;;;;;17.45;9.48;;;;;;;2.92;83.73;99969.59;5034308;28;20106;-78
2024/01/30 08:26:30;;;;;;;14.98;10.23;;;;;;;3.13;82.58;99987.44;5060812;28;20028;-78
2024/01/30 08:28:55;;;;;;;15.55;9.75;;;;;;;3.08;83.30;99976.59;5039778;28;20036;-78
2024/01/30 08:31:21;;;;;;;13.90;9.90;;;;;;;3.17;82.92;99975.56;5063948;28;20485;-79
2024/01/30 08:33:46;;;;;;;17.40;10.80;;;;;;;3.23;82.30;99979.34;5053038;28;20040;-79
2024/01/30 08:36:11;;;;;;;14.45;10.55;;;;;;;3.20;82.62;99977.84;5060751;28;20048;-78
2024/01/30 08:38:37;;;;;;;15.15;9.93;;;;;;;3.16;82.39;99986.28;5046383;28;20032;-79
2024/01/30 08:41:02;;;;;;;15.88;10.13;;;;;;;3.18;83.24;99974.56;5052106;28;20436;-78
2024/01/30 08:43:28;;;;;;;13.02;10.00;;;;;;;3.13;83.35;99976.06;5060035;28;20067;-78
2024/01/30 08:45:53;;;;;;;12.23;9.68;;;;;;;3.16;83.49;99978.38;5064504;28;20021;-78
2024/01/30 08:48:18;;;;;;;17.08;11.68;;;;;;;2.95;85.00;99982.44;5053009;28;20069;-78
2024/01/30 08:50:44;;;;;;;16.83;9.63;;;;;;;3.02;84.62;99967.56;5054704;28;20029;-78
2024/01/30 08:53:09;;;;;;;16.88;10.48;;;;;;;3.24;83.60;99981.78;5052322;28;20060;-79
2024/01/30 08:55:34;;;;;;;16.63;10.23;;;;;;;3.40;83.06;99983.50;5033499;28;20490;-78
2024/01/30 08:58:00;;;;;;;14.98;11.05;;;;;;;3.34;83.35;99984.22;5049642;28;20033;-78
2024/01/30 09:00:25;;;;;;;16.50;10.40;;;;;;;3.46;82.89;99980.16;5052777;28;20025;-78
2024/01/30 09:02:50;;;;;;;14.45;9.23;;;;;;;3.52;82.09;99975.00;5058714;28;20370;-78
2024/01/30 09:05:16;;;;;;;16.60;10.13;;;;;;;3.42;82.66;99977.06;5052075;28;20088;-79
2024/01/30 09:07:41;;;;;;;16.30;10.60;;;;;;;3.39;83.44;99976.56;5044813;28;20032;-78
2024/01/30 09:10:07;;;;;;;10.05;8.60;;;;;;;3.37;83.26;99978.56;5051056;28;20047;-78
2024/01/30 09:12:32;;;;;;;13.07;9.70;;;;;;;3.37;83.67;99976.75;5019355;28;20044;-78
2024/01/30 09:14:58;;;;;;;17.33;10.95;;;;;;;3.36;83.68;99979.59;5050547;28;20051;-78
2024/01/30 09:17:23;;;;;;;17.25;10.48;;;;;;;3.44;83.63;99984.81;5070136;28;20041;-78
2024/01/30 09:19:49;;;;;;;14.70;9.73;;;;;;;3.44;83.23;99979.53;5075960;28;20027;-78
2024/01/30 09:22:14;;;;;;;14.10;9.88;;;;;;;3.43;83.36;99972.63;5092257;28;20040;-78
2024/01/30 09:24:40;;;;;;;18.13;10.45;;;;;;;3.42;83.71;99984.16;5072938;28;20485;-78
2024/01/30 09:27:06;;;;;;;14.95;10.13;;;;;;;3.41;85.07;99985.13;5057395;28;20493;-78
2024/01/30 09:29:34;;;;;;;16.13;10.00;;;;;;;3.35;84.49;99975.28;5056219;28;20028;-78
2024/01/30 09:31:59;;;;;;;15.88;10.85;;;;;;;3.44;84.53;99987.44;5038507;28;20124;-78
2024/01/30 09:34:24;;;;;;;18.73;10.43;;;;;;;3.43;84.38;99975.25;5054152;28;20387;-78
2024/01/30 09:36:50;;;;;;;17.38;11.02;;;;;;;3.52;84.65;99982.94;5034675;28;20033;-78
2024/01/30 09:39:16;;;;;;;14.40;9.35;;;;;;;3.54;84.98;99980.09;5060971;28;20020;-78
2024/01/30 09:42:01;;;;;;;16.02;10.95;;;;;;;3.56;84.41;99984.22;5064533;28;20033;-79
2024/01/30 09:44:29;;;;;;;20.05;11.35;;;;;;;3.60;84.95;99989.97;5064196;28;20445;-78
2024/01/30 09:46:55;;;;;;;20.23;11.30;;;;;;;3.58;84.75;99979.56;5051959;28;20051;-78
2024/01/30 09:49:24;;;;;;;16.92;11.57;;;;;;;3.63;84.79;99979.88;5045701;28;20021;-78
2024/01/30 09:51:50;;;;;;;20.35;10.63;;;;;;;3.63;85.00;99976.41;5055922;28;20091;-78
2024/01/30 09:54:16;;;;;;;16.98;11.13;;;;;;;3.68;84.90;99971.44;5055148;28;20158;-78
2024/01/30 09:56:41;;;;;;;22.13;11.73;;;;;;;3.76;84.44;99981.91;5044632;28;20401;-78
2024/01/30 09:59:07;;;;;;;21.55;12.30;;;;;;;3.80;84.50;99984.03;5043765;28;20064;-80
2024/01/30 10:01:35;;;;;;;17.33;11.82;;;;;;;3.88;83.38;99988.44;5042943;28;20037;-78
2024/01/30 10:04:00;;;;;;;21.20;11.80;;;;;;;3.87;83.70;99975.44;5050259;28;20524;-78
2024/01/30 10:06:26;;;;;;;16.25;12.02;;;;;;;3.87;84.29;99973.59;5049396;28;20024;-78
2024/01/30 10:08:52;;;;;;;17.00;11.40;;;;;;;4.05;83.76;99984.66;5057684;28;20028;-78
2024/01/30 10:11:17;;;;;;;19.95;11.27;;;;;;;3.99;84.34;99984.56;5048796;28;20035;-78
2024/01/30 10:13:42;;;;;;;21.33;12.35;;;;;;;4.00;83.85;99980.94;5064322;28;20131;-78
2024/01/30 10:16:08;;;;;;;20.42;12.88;;;;;;;4.09;84.32;99985.94;5051137;28;20029;-78
2024/01/30 10:18:33;;;;;;;17.15;12.10;;;;;;;4.08;84.54;99988.78;5052082;28;20079;-79
2024/01/30 10:20:59;;;;;;;18.77;12.38;;;;;;;4.13;84.29;99983.78;5052766;28;20424;-78
2024/01/30 10:23:24;;;;;;;19.60;11.88;;;;;;;4.18;84.01;99984.03;5025562;28;20033;-78
2024/01/30 10:25:52;;;;;;;23.45;13.02;;;;;;;4.29;83.42;99983.59;5033653;28;20024;-78
2024/01/30 10:28:17;;;;;;;20.95;12.18;;;;;;;4.35;82.85;99983.72;5053471;28;20486;-78
2024/01/30 10:30:42;;;;;;;20.13;11.60;;;;;;;4.41;82.33;99976.91;5051628;28;20074;-80
2024/01/30 10:33:08;;;;;;;18.05;11.52;;;;;;;4.42;82.86;99978.53;5051618;28;20024;-78
2024/01/30 10:35:33;;;;;;;23.40;13.25;;;;;;;4.44;82.38;99979.97;5047287;28;20030;-79
2024/01/30 10:37:59;;;;;;;20.73;12.73;;;;;;;4.50;82.56;99978.41;5043035;28;20366;-79
2024/01/30 10:40:28;;;;;;;22.40;11.38;;;;;;;4.49;83.49;99982.09;5060373;28;20124;-78
2024/01/30 10:42:55;;;;;;;21.70;12.18;;;;;;;4.51;84.29;99974.78;5059618;28;20090;-79
2024/01/30 10:45:22;;;;;;;18.60;12.88;;;;;;;4.55;83.01;99966.31;5051551;28;20143;-78
2024/01/30 10:47:54;;;;;;;20.48;12.20;;;;;;;4.65;81.71;99962.59;5049117;28;20029;-79
2024/01/30 10:50:20;;;;;;;22.98;12.82;;;;;;;4.75;82.27;99965.75;5054598;28;20033;-78
2024/01/30 10:52:47;;;;;;;20.60;13.20;;;;;;;4.82;82.54;99956.91;5051316;28;20039;-78
2024/01/30 10:55:13;;;;;;;25.38;14.25;;;;;;;4.73;82.71;99952.72;5053911;28;20063;-78
2024/01/30 10:57:39;;;;;;;23.63;13.23;;;;;;;4.83;82.23;99953.25;5064696;28;20021;-77
2024/01/30 11:00:10;;;;;;;21.45;13.27;;;;;;;4.87;82.03;99948.44;5051761;28;20027;-79
2024/01/30 11:02:38;;;;;;;23.42;13.73;;;;;;;4.88;81.85;99956.16;5050619;28;20051;-78
2024/01/30 11:05:04;;;;;;;18.67;11.23;;;;;;;4.87;82.08;99957.16;5052581;28;20060;-80
2024/01/30 11:07:30;;;;;;;20.05;12.73;;;;;;;4.84;82.27;99938.22;5046655;28;20056;-78
2024/01/30 11:09:58;;;;;;;18.25;11.07;;;;;;;4.91;81.96;99939.13;5056360;28;20437;-78
2024/01/30 11:12:25;;;;;;;16.52;11.48;;;;;;;4.95;83.21;99935.91;5055948;28;20063;-78
2024/01/30 11:15:03;;;;;;;20.73;11.60;;;;;;;4.98;82.79;99926.78;5053009;28;20025;-79
2024/01/30 11:17:28;;;;;;;18.15;11.40;;;;;;;5.03;82.64;99925.22;5041902;28;20025;-79
2024/01/30 11:19:53;;;;;;;21.52;12.52;;;;;;;5.07;83.63;99917.72;5051014;28;20033;-78